createdAt,value
2022-12-01T00:01:18.096Z,42.08
2022-12-01T00:04:03.579Z,45.15
2022-12-01T00:06:48.964Z,48.42
2022-12-01T00:09:52.922Z,49.80
2022-12-01T00:12:43.466Z,47.92
2022-12-01T00:15:37.149Z,51.90
2022-12-01T00:18:22.209Z,44.47
2022-12-01T00:21:14.043Z,48.38
2022-12-01T00:23:59.379Z,49.15
2022-12-01T00:26:44.533Z,44.47
2022-12-01T00:29:29.760Z,52.83
2022-12-01T00:32:15.210Z,43.42
2022-12-01T00:35:00.584Z,47.20
2022-12-01T00:37:45.948Z,41.97
2022-12-01T00:40:31.054Z,49.17
2022-12-01T00:43:16.346Z,44.63
2022-12-01T00:46:01.820Z,47.08
2022-12-01T00:48:47.185Z,48.25
2022-12-01T00:51:32.262Z,48.72
2022-12-01T00:54:17.383Z,47.28
2022-12-01T00:57:03.036Z,46.97
2022-12-01T00:59:48.308Z,49.85
2022-12-01T01:02:34.085Z,46.47
2022-12-01T01:05:19.242Z,48.25
2022-12-01T01:08:12.888Z,43.05
2022-12-01T01:10:59.671Z,43.00
2022-12-01T01:13:45.038Z,45.97
2022-12-01T01:16:30.387Z,40.38
2022-12-01T01:19:16.713Z,49.38
2022-12-01T01:22:02.052Z,46.50
2022-12-01T01:24:47.332Z,41.97
2022-12-01T01:27:34.552Z,43.97
2022-12-01T01:30:20.062Z,45.75
2022-12-01T01:33:05.070Z,38.85
2022-12-01T01:35:50.550Z,46.65
2022-12-01T01:38:36.232Z,46.42
2022-12-01T01:41:22.589Z,48.72
2022-12-01T01:44:45.164Z,43.97
2022-12-01T01:47:34.766Z,41.38
2022-12-01T01:50:23.000Z,39.13
2022-12-01T01:53:12.420Z,37.53
2022-12-01T01:55:58.877Z,38.22
2022-12-01T01:58:44.840Z,38.05
2022-12-01T02:01:31.378Z,39.22
2022-12-01T02:04:16.674Z,36.45
2022-12-01T02:07:01.980Z,34.33
2022-12-01T02:09:47.664Z,40.83
2022-12-01T02:12:55.169Z,34.63
2022-12-01T02:16:12.744Z,35.00
2022-12-01T02:19:35.885Z,40.70
2022-12-01T02:22:38.112Z,34.60
2022-12-01T02:26:02.116Z,36.00
2022-12-01T02:29:24.920Z,29.40
2022-12-01T02:32:33.414Z,32.53
2022-12-01T02:35:39.322Z,35.65
2022-12-01T02:38:35.552Z,26.60
2022-12-01T02:41:29.682Z,28.67
2022-12-01T02:44:24.852Z,28.20
2022-12-01T02:47:14.601Z,29.15
2022-12-01T02:50:01.642Z,28.13
2022-12-01T02:52:47.844Z,25.20
2022-12-01T02:55:32.999Z,25.60
2022-12-01T02:58:18.504Z,25.95
2022-12-01T03:01:30.099Z,26.60
2022-12-01T03:04:24.844Z,24.05
2022-12-01T03:07:19.632Z,27.77
2022-12-01T03:10:25.317Z,23.85
2022-12-01T03:13:29.601Z,24.65
2022-12-01T03:16:42.127Z,25.08
2022-12-01T03:19:43.709Z,23.05
2022-12-01T03:22:36.243Z,25.83
2022-12-01T03:25:26.246Z,21.88
2022-12-01T03:28:22.854Z,22.50
2022-12-01T03:31:13.306Z,32.53
2022-12-01T03:34:24.210Z,29.42
2022-12-01T03:37:18.616Z,28.73
2022-12-01T03:40:08.958Z,27.13
2022-12-01T03:43:01.894Z,27.17
2022-12-01T03:45:56.429Z,29.80
2022-12-01T03:48:42.264Z,29.33
2022-12-01T03:52:10.462Z,24.65
2022-12-01T03:55:09.002Z,27.88
2022-12-01T03:58:03.634Z,22.58
2022-12-01T04:00:53.165Z,22.38
2022-12-01T04:03:38.555Z,21.65
2022-12-01T04:06:23.681Z,26.08
2022-12-01T04:09:09.081Z,24.08
2022-12-01T04:12:13.005Z,25.85
2022-12-01T04:15:03.422Z,25.95
2022-12-01T04:17:48.502Z,21.33
2022-12-01T04:20:33.762Z,19.15
2022-12-01T04:23:37.657Z,20.02
2022-12-01T04:26:22.986Z,15.55
2022-12-01T04:29:11.200Z,19.23
2022-12-01T04:31:56.132Z,19.42
2022-12-01T04:34:41.411Z,19.38
2022-12-01T04:37:26.691Z,18.85
2022-12-01T04:40:12.367Z,21.08
2022-12-01T04:42:57.216Z,17.38
2022-12-01T04:45:42.461Z,22.00
2022-12-01T04:48:27.588Z,18.88
2022-12-01T04:51:12.914Z,19.63
2022-12-01T04:53:58.632Z,19.13
2022-12-01T04:56:43.817Z,19.70
2022-12-01T04:59:29.018Z,16.20
2022-12-01T05:02:15.151Z,17.60
2022-12-01T05:05:00.632Z,16.92
2022-12-01T05:07:45.872Z,19.77
2022-12-01T05:10:30.863Z,19.75
2022-12-01T05:13:16.173Z,19.15
2022-12-01T05:16:09.330Z,26.05
2022-12-01T05:19:16.054Z,21.88
2022-12-01T05:22:01.021Z,24.30
2022-12-01T05:24:46.298Z,23.80
2022-12-01T05:27:31.226Z,27.73
2022-12-01T05:30:16.829Z,19.92
2022-12-01T05:33:01.746Z,20.60
2022-12-01T05:35:48.900Z,21.73
2022-12-01T05:38:34.035Z,15.13
2022-12-01T05:41:19.257Z,18.80
2022-12-01T05:44:04.642Z,12.93
2022-12-01T05:46:50.004Z,14.95
2022-12-01T05:49:35.315Z,21.52
2022-12-01T05:52:20.624Z,18.85
2022-12-01T05:55:06.763Z,20.58
2022-12-01T05:57:51.891Z,16.60
2022-12-01T06:00:45.017Z,16.73
2022-12-01T06:03:30.650Z,17.90
2022-12-01T06:06:15.721Z,13.35
2022-12-01T06:09:01.115Z,17.20
2022-12-01T06:11:50.021Z,15.02
2022-12-01T06:14:37.620Z,17.27
2022-12-01T06:17:22.633Z,17.80
2022-12-01T06:20:09.560Z,13.30
2022-12-01T06:22:54.924Z,17.30
2022-12-01T06:25:40.256Z,15.18
2022-12-01T06:28:25.573Z,14.05
2022-12-01T06:31:10.762Z,14.50
2022-12-01T06:33:55.942Z,14.40
2022-12-01T06:36:41.267Z,15.02
2022-12-01T06:39:26.692Z,13.00
2022-12-01T06:42:12.187Z,12.88
2022-12-01T06:44:57.195Z,14.48
2022-12-01T06:47:42.516Z,18.38
2022-12-01T06:50:27.693Z,15.52
2022-12-01T06:53:12.857Z,15.02
2022-12-01T06:56:05.201Z,14.63
2022-12-01T06:58:50.730Z,20.40
2022-12-01T07:01:36.647Z,15.50
2022-12-01T07:04:21.736Z,16.30
2022-12-01T07:07:07.107Z,15.30
2022-12-01T07:09:52.361Z,21.20
2022-12-01T07:12:38.185Z,12.70
2022-12-01T07:15:24.357Z,13.35
2022-12-01T07:18:09.602Z,12.57
2022-12-01T07:20:59.076Z,12.55
2022-12-01T07:23:44.306Z,16.52
2022-12-01T07:26:29.462Z,15.85
2022-12-01T07:29:14.530Z,13.43
2022-12-01T07:31:59.708Z,14.98
2022-12-01T07:34:45.026Z,16.92
2022-12-01T07:37:30.178Z,12.30
2022-12-01T07:40:15.526Z,12.00
2022-12-01T07:43:00.810Z,13.13
2022-12-01T07:45:46.100Z,17.58
2022-12-01T07:48:31.395Z,13.57
2022-12-01T07:51:17.375Z,16.25
2022-12-01T07:54:05.010Z,15.75
2022-12-01T07:56:50.336Z,20.50
2022-12-01T07:59:35.512Z,19.05
2022-12-01T08:02:20.997Z,11.60
2022-12-01T08:05:07.020Z,13.70
2022-12-01T08:07:53.952Z,13.73
2022-12-01T08:10:39.484Z,17.35
2022-12-01T08:13:24.721Z,23.13
2022-12-01T08:16:13.281Z,23.10
2022-12-01T08:18:58.570Z,25.02
2022-12-01T08:21:44.919Z,21.25
2022-12-01T08:24:30.504Z,25.27
2022-12-01T08:27:15.575Z,16.63
2022-12-01T08:30:00.526Z,15.13
2022-12-01T08:32:45.922Z,25.23
2022-12-01T08:35:31.159Z,26.77
2022-12-01T08:38:16.426Z,26.48
2022-12-01T08:41:08.356Z,36.97
2022-12-01T08:43:58.440Z,20.75
2022-12-01T08:46:44.656Z,17.77
2022-12-01T08:49:30.003Z,17.80
2022-12-01T08:52:15.267Z,24.05
2022-12-01T08:55:01.179Z,16.95
2022-12-01T08:57:46.655Z,12.20
2022-12-01T09:00:31.771Z,18.70
2022-12-01T09:03:17.204Z,22.05
2022-12-01T09:06:08.581Z,10.18
2022-12-01T09:08:53.895Z,16.98
2022-12-01T09:11:39.914Z,19.50
2022-12-01T09:14:25.261Z,16.15
2022-12-01T09:17:10.223Z,14.63
2022-12-01T09:19:55.451Z,15.05
2022-12-01T09:22:40.648Z,15.23
2022-12-01T09:25:25.918Z,13.02
2022-12-01T09:28:11.360Z,13.80
2022-12-01T09:30:56.816Z,11.65
2022-12-01T09:33:41.925Z,12.70
2022-12-01T09:36:28.578Z,14.57
2022-12-01T09:39:19.590Z,15.77
2022-12-01T09:42:16.731Z,17.38
2022-12-01T09:45:04.987Z,18.10
2022-12-01T09:47:50.144Z,13.82
2022-12-01T09:50:36.220Z,13.20
2022-12-01T09:53:25.305Z,15.55
2022-12-01T09:56:42.627Z,16.05
2022-12-01T09:59:40.199Z,17.27
2022-12-01T10:02:31.314Z,14.82
2022-12-01T10:05:22.223Z,14.70
2022-12-01T10:08:15.508Z,14.05
2022-12-01T10:11:24.824Z,19.08
2022-12-01T10:14:20.073Z,12.93
2022-12-01T10:17:11.842Z,17.02
2022-12-01T10:20:10.748Z,15.85
2022-12-01T10:23:33.605Z,16.98
2022-12-01T10:26:31.476Z,17.70
2022-12-01T10:29:36.312Z,14.70
2022-12-01T10:32:36.092Z,17.30
2022-12-01T10:35:25.143Z,13.43
2022-12-01T10:38:24.180Z,14.25
2022-12-01T10:41:14.471Z,16.05
2022-12-01T10:46:52.808Z,15.30
2022-12-01T10:49:40.845Z,14.52
2022-12-01T10:52:34.562Z,14.20
2022-12-01T10:55:22.906Z,19.35
2022-12-01T10:58:15.530Z,15.68
2022-12-01T11:01:06.634Z,14.10
2022-12-01T11:04:08.129Z,13.65
2022-12-01T11:06:53.867Z,14.98
2022-12-01T11:09:39.142Z,13.15
2022-12-01T11:12:25.068Z,16.95
2022-12-01T11:15:20.948Z,19.52
2022-12-01T11:18:31.339Z,15.68
2022-12-01T11:21:28.056Z,15.05
2022-12-01T11:24:27.913Z,15.05
2022-12-01T11:30:27.383Z,15.23
2022-12-01T11:33:14.926Z,12.60
2022-12-01T11:36:00.307Z,12.32
2022-12-01T11:38:45.591Z,19.15
2022-12-01T11:41:40.638Z,15.80
2022-12-01T11:44:50.480Z,16.63
2022-12-01T11:47:32.423Z,18.08
2022-12-01T11:50:27.192Z,15.82
2022-12-01T11:53:42.750Z,17.70
2022-12-01T11:56:30.268Z,17.20
2022-12-01T11:59:17.012Z,16.45
2022-12-01T12:02:30.551Z,14.18
2022-12-01T12:05:21.648Z,11.77
2022-12-01T12:08:21.947Z,12.27
2022-12-01T12:11:20.404Z,15.13
2022-12-01T12:14:39.982Z,13.48
2022-12-01T12:18:05.901Z,14.77
2022-12-01T12:21:20.006Z,10.77
2022-12-01T12:24:31.243Z,12.30
2022-12-01T12:27:32.189Z,11.02
2022-12-01T12:30:29.756Z,10.65
2022-12-01T12:33:28.846Z,11.65
2022-12-01T12:36:29.030Z,11.90
2022-12-01T12:39:59.786Z,10.88
2022-12-01T12:42:44.663Z,15.70
2022-12-01T12:45:57.584Z,15.93
2022-12-01T12:49:11.639Z,15.45
2022-12-01T12:52:08.144Z,11.80
2022-12-01T12:55:12.373Z,12.60
2022-12-01T12:58:06.672Z,12.98
2022-12-01T13:01:09.614Z,15.05
2022-12-01T13:04:07.927Z,13.17
2022-12-01T13:07:01.835Z,15.60
2022-12-01T13:10:00.647Z,15.20
2022-12-01T13:12:56.150Z,13.15
2022-12-01T13:15:42.512Z,11.27
2022-12-01T13:18:37.646Z,12.77
2022-12-01T13:21:24.060Z,9.93
2022-12-01T13:24:21.340Z,8.30
2022-12-01T13:27:14.703Z,11.15
2022-12-01T13:30:00.660Z,8.75
2022-12-01T13:32:47.108Z,11.13
2022-12-01T13:35:37.922Z,11.43
2022-12-01T13:38:26.793Z,10.95
2022-12-01T13:41:17.840Z,11.43
2022-12-01T13:44:07.202Z,7.82
2022-12-01T13:47:04.931Z,9.80
2022-12-01T13:49:52.098Z,9.55
2022-12-01T13:52:49.652Z,10.48
2022-12-01T13:55:34.665Z,7.63
2022-12-01T13:58:29.522Z,9.38
2022-12-01T14:01:21.240Z,5.68
2022-12-01T14:04:15.773Z,8.10
2022-12-01T14:07:27.906Z,8.75
2022-12-01T14:10:22.674Z,11.85
2022-12-01T14:13:19.325Z,12.23
2022-12-01T14:16:05.291Z,10.35
2022-12-01T14:18:58.737Z,10.95
2022-12-01T14:21:49.608Z,11.95
2022-12-01T14:24:37.815Z,14.15
2022-12-01T14:27:41.391Z,10.40
2022-12-01T14:30:42.054Z,12.20
2022-12-01T14:33:39.641Z,14.45
2022-12-01T14:36:24.690Z,10.13
2022-12-01T14:39:17.995Z,10.23
2022-12-01T14:42:11.322Z,13.63
2022-12-01T14:44:57.435Z,9.32
2022-12-01T14:47:49.413Z,12.05
2022-12-01T14:50:45.072Z,10.90
2022-12-01T14:53:34.028Z,9.88
2022-12-01T14:56:21.952Z,8.45
2022-12-01T14:59:22.613Z,8.43
2022-12-01T15:02:12.141Z,9.50
2022-12-01T15:05:18.239Z,13.23
2022-12-01T15:11:27.103Z,9.68
2022-12-01T15:14:56.710Z,11.70
2022-12-01T15:17:41.712Z,14.95
2022-12-01T15:20:41.296Z,10.50
2022-12-01T15:23:29.985Z,13.23
2022-12-01T15:26:19.624Z,11.82
2022-12-01T15:29:28.523Z,18.65
2022-12-01T15:32:17.135Z,11.80
2022-12-01T15:35:04.630Z,14.32
2022-12-01T15:37:51.311Z,12.70
2022-12-01T15:41:06.645Z,15.55
2022-12-01T15:43:41.943Z,16.58
2022-12-01T15:46:34.546Z,13.23
2022-12-01T15:49:27.765Z,13.30
2022-12-01T15:52:12.894Z,13.45
2022-12-01T15:55:02.964Z,14.07
2022-12-01T15:57:48.132Z,16.20
2022-12-01T16:00:33.831Z,16.15
2022-12-01T16:03:19.526Z,14.93
2022-12-01T16:06:04.705Z,9.98
2022-12-01T16:09:27.380Z,14.38
2022-12-01T16:12:12.292Z,9.73
2022-12-01T16:15:19.049Z,12.00
2022-12-01T16:18:26.160Z,18.92
2022-12-01T16:21:11.491Z,10.43
2022-12-01T16:24:05.721Z,13.65
2022-12-01T16:26:55.598Z,12.43
2022-12-01T16:30:06.379Z,13.65
2022-12-01T16:33:00.397Z,11.38
2022-12-01T16:35:46.185Z,16.02
2022-12-01T16:38:31.314Z,15.82
2022-12-01T16:41:25.158Z,18.02
2022-12-01T16:44:32.164Z,20.67
2022-12-01T16:47:19.696Z,22.52
2022-12-01T16:50:05.416Z,17.05
2022-12-01T16:52:50.299Z,17.92
2022-12-01T16:55:46.435Z,18.30
2022-12-01T16:58:31.544Z,24.30
2022-12-01T17:01:17.094Z,22.23
2022-12-01T17:04:07.233Z,21.45
2022-12-01T17:06:53.771Z,23.92
2022-12-01T17:09:38.992Z,26.42
2022-12-01T17:12:26.370Z,25.88
2022-12-01T17:15:11.889Z,25.27
2022-12-01T17:17:57.249Z,19.85
2022-12-01T17:20:42.955Z,20.58
2022-12-01T17:23:28.248Z,19.77
2022-12-01T17:26:16.333Z,19.50
2022-12-01T17:29:02.149Z,20.98
2022-12-01T17:31:47.575Z,20.50
2022-12-01T17:34:32.672Z,17.13
2022-12-01T17:37:21.197Z,19.52
2022-12-01T17:40:10.282Z,16.30
2022-12-01T17:42:55.282Z,12.88
2022-12-01T17:45:42.099Z,15.63
2022-12-01T17:48:28.437Z,13.05
2022-12-01T17:51:14.375Z,17.65
2022-12-01T17:53:59.703Z,21.95
2022-12-01T17:56:45.082Z,21.00
2022-12-01T17:59:30.333Z,22.15
2022-12-01T18:02:15.744Z,23.85
2022-12-01T18:05:00.939Z,22.95
2022-12-01T18:07:46.416Z,18.85
2022-12-01T18:10:31.468Z,21.92
2022-12-01T18:13:16.425Z,21.42
2022-12-01T18:16:09.175Z,22.23
2022-12-01T18:18:56.451Z,20.88
2022-12-01T18:21:42.144Z,21.48
2022-12-01T18:24:27.069Z,27.60
2022-12-01T18:27:12.315Z,22.33
2022-12-01T18:29:57.545Z,27.63
2022-12-01T18:32:42.867Z,24.52
2022-12-01T18:35:31.798Z,30.95
2022-12-01T18:38:17.395Z,27.38
2022-12-01T18:41:03.148Z,44.08
2022-12-01T18:43:48.313Z,59.17
2022-12-01T18:46:33.912Z,33.45
2022-12-01T18:49:19.124Z,27.65
2022-12-01T18:52:04.964Z,28.63
2022-12-01T18:54:50.440Z,32.83
2022-12-01T18:57:35.915Z,32.80
2022-12-01T19:00:21.742Z,34.53
2022-12-01T19:03:06.948Z,36.17
2022-12-01T19:05:52.234Z,39.55
2022-12-01T19:08:37.368Z,40.83
2022-12-01T19:11:22.524Z,51.20
2022-12-01T19:14:11.998Z,48.60
2022-12-01T19:16:57.245Z,79.28
2022-12-01T19:19:42.404Z,94.63
2022-12-01T19:22:27.869Z,86.38
2022-12-01T19:25:13.611Z,81.65
2022-12-01T19:27:59.059Z,72.60
2022-12-01T19:30:48.226Z,62.13
2022-12-01T19:33:33.644Z,75.75
2022-12-01T19:36:22.202Z,68.10
2022-12-01T19:39:07.821Z,75.50
2022-12-01T19:41:53.114Z,67.68
2022-12-01T19:44:38.325Z,64.63
2022-12-01T19:47:23.619Z,53.17
2022-12-01T19:50:09.760Z,62.58
2022-12-01T19:52:55.085Z,64.03
2022-12-01T19:55:40.229Z,50.10
2022-12-01T19:58:25.532Z,52.42
2022-12-01T20:01:13.037Z,52.00
2022-12-01T20:03:58.510Z,55.03
2022-12-01T20:06:44.040Z,52.88
2022-12-01T20:09:28.994Z,52.08
2022-12-01T20:12:14.632Z,52.08
2022-12-01T20:15:00.629Z,50.90
2022-12-01T20:17:45.569Z,60.90
2022-12-01T20:20:30.667Z,124.05
2022-12-01T20:23:15.822Z,167.98
2022-12-01T20:26:04.078Z,171.80
2022-12-01T20:28:52.616Z,156.68
2022-12-01T20:31:37.921Z,94.13
2022-12-01T20:34:26.898Z,69.80
2022-12-01T20:37:12.521Z,79.65
2022-12-01T20:39:57.872Z,65.10
2022-12-01T20:42:43.058Z,64.57
2022-12-01T20:45:28.251Z,64.18
2022-12-01T20:48:14.322Z,56.90
2022-12-01T20:51:00.964Z,63.05
2022-12-01T20:54:05.580Z,54.50
2022-12-01T20:56:51.569Z,55.08
2022-12-01T20:59:36.974Z,58.58
2022-12-01T21:02:22.173Z,60.42
2022-12-01T21:05:07.300Z,54.78
2022-12-01T21:07:52.943Z,56.72
2022-12-01T21:10:44.874Z,59.60
2022-12-01T21:13:42.107Z,57.78
2022-12-01T21:16:34.045Z,51.03
2022-12-01T21:19:51.239Z,52.20
2022-12-01T21:22:36.470Z,56.00
2022-12-01T21:25:24.302Z,56.10
2022-12-01T21:28:24.132Z,60.42
2022-12-01T21:31:14.717Z,52.75
2022-12-01T21:33:59.819Z,52.55
2022-12-01T21:36:47.383Z,51.83
2022-12-01T21:39:34.628Z,53.20
2022-12-01T21:42:22.848Z,58.30
2022-12-01T21:45:22.181Z,52.60
2022-12-01T21:48:16.402Z,79.47
2022-12-01T21:51:04.731Z,85.63
2022-12-01T21:53:52.010Z,60.67
2022-12-01T21:56:37.315Z,62.42
2022-12-01T21:59:23.933Z,67.43
2022-12-01T22:02:36.372Z,71.13
2022-12-01T22:05:28.028Z,70.72
2022-12-01T22:08:32.820Z,78.70
2022-12-01T22:11:27.314Z,87.07
2022-12-01T22:14:36.429Z,93.03
2022-12-01T22:17:22.135Z,79.05
2022-12-01T22:20:22.366Z,81.00
2022-12-01T22:23:12.579Z,78.75
2022-12-01T22:25:58.003Z,78.65
2022-12-01T22:28:43.269Z,79.93
2022-12-01T22:31:29.314Z,81.35
2022-12-01T22:34:16.495Z,79.60
2022-12-01T22:37:01.653Z,80.22
2022-12-01T22:39:48.765Z,78.80
2022-12-01T22:42:35.282Z,80.95
2022-12-01T22:45:24.090Z,64.90
2022-12-01T22:48:27.527Z,72.25
2022-12-01T22:51:22.503Z,85.47
2022-12-01T22:54:10.414Z,75.50
2022-12-01T22:57:15.601Z,82.07
2022-12-01T23:00:13.973Z,79.53
2022-12-01T23:02:59.297Z,81.50
2022-12-01T23:05:45.349Z,80.95
2022-12-01T23:08:30.210Z,82.15
2022-12-01T23:11:15.142Z,82.65
2022-12-01T23:14:00.290Z,72.93
2022-12-01T23:16:45.494Z,77.47
2022-12-01T23:19:32.600Z,84.13
2022-12-01T23:22:17.936Z,79.90
2022-12-01T23:25:13.314Z,74.23
2022-12-01T23:28:02.929Z,77.18
2022-12-01T23:30:52.536Z,78.10
2022-12-01T23:33:37.843Z,69.13
2022-12-01T23:36:26.094Z,74.68
2022-12-01T23:39:13.562Z,74.00
2022-12-01T23:41:59.183Z,70.03
2022-12-01T23:44:45.567Z,71.40
2022-12-01T23:47:30.878Z,72.88
2022-12-01T23:50:22.736Z,71.28
2022-12-01T23:53:23.536Z,69.72
2022-12-01T23:56:14.342Z,70.45
2022-12-01T23:59:01.277Z,72.55
